createdAt,value
2018-11-23T00:04:25.842Z,86.46
2018-11-23T00:09:44.316Z,86.20
2018-11-23T00:15:02.852Z,86.62
2018-11-23T00:20:22.648Z,86.96
2018-11-23T00:25:42.185Z,87.00
2018-11-23T00:30:59.729Z,86.84
2018-11-23T00:36:18.192Z,87.36
2018-11-23T00:41:36.987Z,86.32
2018-11-23T00:46:55.535Z,87.04
2018-11-23T00:52:14.064Z,87.55
2018-11-23T00:57:32.640Z,87.61
2018-11-23T01:02:51.268Z,87.76
2018-11-23T01:08:09.816Z,87.58
2018-11-23T01:13:28.337Z,87.21
2018-11-23T01:18:46.904Z,87.89
2018-11-23T01:24:05.520Z,88.11
2018-11-23T01:29:24.009Z,87.76
2018-11-23T01:34:42.543Z,87.80
2018-11-23T01:40:01.071Z,87.93
2018-11-23T01:45:19.593Z,87.88
2018-11-23T01:50:38.196Z,87.22
2018-11-23T01:55:56.774Z,87.88
2018-11-23T02:01:15.298Z,87.74
2018-11-23T02:06:33.794Z,87.59
2018-11-23T02:11:52.378Z,87.82
2018-11-23T02:17:10.995Z,87.96
2018-11-23T02:22:29.545Z,87.71
2018-11-23T02:27:48.003Z,87.60
2018-11-23T02:33:06.561Z,87.73
2018-11-23T02:38:25.077Z,87.97
2018-11-23T02:43:43.672Z,87.58
2018-11-23T02:49:02.167Z,87.84
2018-11-23T02:54:20.950Z,87.72
2018-11-23T02:59:39.517Z,87.93
2018-11-23T03:04:58.007Z,87.96
2018-11-23T03:10:17.155Z,87.55
2018-11-23T03:15:35.610Z,87.62
2018-11-23T03:20:54.149Z,88.02
2018-11-23T03:26:12.636Z,88.46
2018-11-23T03:31:31.219Z,88.64
2018-11-23T03:36:49.749Z,88.59
2018-11-23T03:42:08.364Z,89.10
2018-11-23T03:47:26.890Z,88.92
2018-11-23T03:52:45.660Z,89.01
2018-11-23T03:58:04.169Z,89.17
2018-11-23T04:03:22.663Z,89.44
2018-11-23T04:08:41.269Z,89.23
2018-11-23T04:13:59.763Z,88.83
2018-11-23T04:19:18.274Z,89.47
2018-11-23T04:24:36.759Z,89.61
2018-11-23T04:29:55.255Z,89.74
2018-11-23T04:35:15.089Z,90.05
2018-11-23T04:40:33.582Z,89.54
2018-11-23T04:45:52.279Z,90.09
2018-11-23T04:51:10.872Z,90.05
2018-11-23T04:56:29.416Z,89.65
2018-11-23T05:01:47.955Z,89.27
2018-11-23T05:07:06.455Z,89.50
2018-11-23T05:12:24.962Z,89.65
2018-11-23T05:17:43.696Z,89.98
2018-11-23T05:23:02.197Z,90.02
2018-11-23T05:28:20.788Z,89.51
2018-11-23T05:33:39.343Z,90.47
2018-11-23T05:38:57.839Z,90.30
2018-11-23T05:44:16.352Z,90.08
2018-11-23T05:49:34.839Z,90.73
2018-11-23T05:54:53.381Z,91.16
2018-11-23T06:00:14.936Z,91.15
2018-11-23T06:05:33.448Z,91.67
2018-11-23T06:10:51.974Z,91.46
2018-11-23T06:16:10.520Z,90.95
2018-11-23T06:21:29.068Z,91.46
2018-11-23T06:26:47.688Z,91.46
2018-11-23T06:32:16.241Z,91.55
2018-11-23T06:37:34.764Z,91.67
2018-11-23T06:42:53.269Z,92.06
2018-11-23T06:48:12.147Z,90.50
2018-11-23T06:53:30.665Z,90.59
2018-11-23T06:58:49.180Z,91.38
2018-11-23T07:04:07.665Z,91.10
2018-11-23T07:09:26.156Z,91.15
2018-11-23T07:14:44.679Z,91.66
2018-11-23T07:20:03.295Z,91.10
2018-11-23T07:25:21.814Z,90.95
2018-11-23T07:30:40.348Z,90.94
2018-11-23T07:35:59.288Z,91.66
2018-11-23T07:41:29.072Z,91.70
2018-11-23T07:46:47.652Z,90.98
2018-11-23T07:52:06.288Z,91.35
2018-11-23T07:57:24.748Z,91.41
2018-11-23T08:02:43.828Z,91.91
2018-11-23T08:08:02.332Z,92.16
2018-11-23T08:13:20.999Z,91.78
2018-11-23T08:18:39.546Z,91.43
2018-11-23T08:23:58.083Z,91.40
2018-11-23T08:29:16.628Z,91.40
2018-11-23T08:34:35.133Z,91.26
2018-11-23T08:39:53.642Z,90.28
2018-11-23T08:45:13.912Z,90.21
2018-11-23T08:50:32.489Z,90.36
2018-11-23T08:55:51.015Z,90.57
2018-11-23T09:01:09.544Z,89.65
2018-11-23T09:06:28.072Z,89.23
2018-11-23T09:11:46.624Z,88.67
2018-11-23T09:17:05.337Z,88.19
2018-11-23T09:22:23.869Z,88.24
2018-11-23T09:27:42.496Z,87.22
2018-11-23T09:33:01.166Z,86.63
2018-11-23T09:38:19.688Z,86.02
2018-11-23T09:43:38.283Z,85.56
2018-11-23T09:48:56.864Z,85.32
2018-11-23T09:54:15.665Z,84.78
2018-11-23T09:59:34.147Z,83.69
2018-11-23T10:04:53.624Z,83.81
2018-11-23T10:10:13.103Z,83.12
2018-11-23T10:15:32.499Z,83.09
2018-11-23T10:20:51.003Z,82.51
2018-11-23T10:26:09.515Z,81.94
2018-11-23T10:31:28.214Z,82.34
2018-11-23T10:36:48.023Z,80.72
2018-11-23T10:42:07.275Z,79.93
2018-11-23T10:47:25.730Z,80.13
2018-11-23T10:52:44.352Z,79.98
2018-11-23T10:58:02.920Z,80.17
2018-11-23T11:03:37.649Z,80.14
2018-11-23T11:08:56.182Z,77.49
2018-11-23T11:14:14.790Z,76.35
2018-11-23T11:19:33.266Z,77.66
2018-11-23T11:24:51.733Z,77.50
2018-11-23T11:30:12.364Z,77.09
2018-11-23T11:35:30.909Z,76.63
2018-11-23T11:40:49.426Z,76.61
2018-11-23T11:46:08.404Z,76.20
2018-11-23T11:51:27.055Z,75.59
2018-11-23T11:56:45.571Z,75.39
2018-11-23T12:02:06.683Z,75.47
2018-11-23T12:07:22.712Z,74.91
2018-11-23T12:12:41.265Z,75.12
2018-11-23T12:17:59.795Z,75.20
2018-11-23T12:23:18.277Z,75.72
2018-11-23T12:28:36.776Z,75.17
2018-11-23T12:33:55.278Z,74.86
2018-11-23T12:39:13.792Z,74.10
2018-11-23T12:44:32.333Z,72.37
2018-11-23T12:49:50.833Z,72.75
2018-11-23T12:55:10.036Z,73.09
2018-11-23T13:00:29.460Z,72.21
2018-11-23T13:05:48.033Z,70.63
2018-11-23T13:11:06.555Z,70.71
2018-11-23T13:16:25.466Z,70.67
2018-11-23T13:21:44.036Z,71.50
2018-11-23T13:27:02.574Z,72.14
2018-11-23T13:32:21.100Z,72.48
2018-11-23T13:37:39.598Z,72.64
2018-11-23T13:42:59.053Z,72.42
2018-11-23T13:48:20.091Z,73.04
2018-11-23T13:53:36.052Z,71.94
2018-11-23T13:58:54.603Z,69.45
2018-11-23T14:04:13.120Z,68.71
2018-11-23T14:09:31.637Z,69.46
2018-11-23T14:14:50.088Z,71.08
2018-11-23T14:20:10.653Z,71.87
2018-11-23T14:25:30.805Z,72.85
2018-11-23T14:30:49.420Z,73.45
2018-11-23T14:36:07.947Z,73.46
2018-11-23T14:41:26.739Z,75.22
2018-11-23T14:46:45.436Z,75.28
2018-11-23T14:52:03.961Z,75.52
2018-11-23T14:57:22.478Z,76.56
2018-11-23T15:02:41.199Z,77.20
2018-11-23T15:07:59.754Z,77.89
2018-11-23T15:13:18.315Z,78.67
2018-11-23T15:18:36.811Z,79.11
2018-11-23T15:23:55.389Z,79.76
2018-11-23T15:29:14.292Z,79.30
2018-11-23T15:34:32.781Z,80.16
2018-11-23T15:39:51.244Z,80.61
2018-11-23T15:45:13.082Z,81.23
2018-11-23T15:50:33.806Z,81.57
2018-11-23T15:55:52.449Z,81.55
2018-11-23T16:01:11.016Z,82.56
2018-11-23T16:06:29.532Z,82.92
2018-11-23T16:11:48.070Z,81.44
2018-11-23T16:17:06.586Z,81.48
2018-11-23T16:22:25.060Z,82.04
2018-11-23T16:27:44.659Z,83.13
2018-11-23T16:33:04.508Z,83.36
2018-11-23T16:38:24.085Z,83.51
2018-11-23T16:43:42.581Z,83.65
2018-11-23T16:49:01.062Z,84.14
2018-11-23T16:54:19.624Z,84.28
2018-11-23T16:59:38.225Z,84.93
2018-11-23T17:04:56.760Z,84.63
2018-11-23T17:10:16.468Z,84.65
2018-11-23T17:15:35.063Z,85.13
2018-11-23T17:20:53.822Z,85.81
2018-11-23T17:26:12.323Z,85.40
2018-11-23T17:31:30.868Z,85.84
2018-11-23T17:36:49.392Z,86.10
2018-11-23T17:42:07.918Z,86.20
2018-11-23T17:47:26.417Z,87.13
2018-11-23T17:52:45.495Z,86.82
2018-11-23T17:58:04.127Z,87.15
2018-11-23T18:08:48.680Z,87.55
2018-11-23T18:14:07.512Z,87.72
2018-11-23T18:19:26.512Z,87.23
2018-11-23T18:24:45.487Z,87.12
2018-11-23T18:30:05.078Z,87.72
2018-11-23T18:35:24.110Z,87.73
2018-11-23T18:40:42.718Z,87.74
2018-11-23T18:46:01.247Z,88.20
2018-11-23T18:51:19.768Z,87.98
2018-11-23T18:56:38.379Z,87.81
2018-11-23T19:01:57.019Z,88.19
2018-11-23T19:07:15.578Z,87.71
2018-11-23T19:12:34.192Z,88.26
2018-11-23T19:17:52.793Z,88.63
2018-11-23T19:23:11.548Z,88.86
2018-11-23T19:28:30.366Z,88.45
2018-11-23T19:33:48.971Z,88.36
2018-11-23T19:39:08.601Z,88.21
2018-11-23T19:44:27.154Z,88.43
2018-11-23T19:49:45.685Z,89.21
2018-11-23T19:55:05.226Z,89.06
2018-11-23T20:00:24.945Z,88.91
2018-11-23T20:05:43.561Z,88.73
2018-11-23T20:11:02.161Z,89.09
2018-11-23T20:16:20.715Z,88.90
2018-11-23T20:21:39.374Z,89.20
2018-11-23T20:26:58.216Z,89.65
2018-11-23T20:32:16.840Z,89.32
2018-11-23T20:37:36.097Z,89.30
2018-11-23T20:42:54.839Z,89.80
2018-11-23T20:48:13.523Z,89.72
2018-11-23T20:53:32.356Z,90.31
2018-11-23T20:58:51.072Z,89.38
2018-11-23T21:04:09.632Z,89.61
2018-11-23T21:09:31.215Z,89.32
2018-11-23T21:14:47.095Z,89.14
2018-11-23T21:20:06.789Z,88.82
2018-11-23T21:25:25.354Z,89.07
2018-11-23T21:30:43.869Z,89.23
2018-11-23T21:36:02.368Z,89.60
2018-11-23T21:41:20.916Z,90.14
2018-11-23T21:46:39.629Z,89.48
2018-11-23T21:51:58.136Z,89.72
2018-11-23T21:57:16.684Z,89.32
2018-11-23T22:02:35.241Z,89.85
2018-11-23T22:07:53.761Z,89.65
2018-11-23T22:13:12.257Z,89.84
2018-11-23T22:18:30.751Z,90.06
2018-11-23T22:23:49.240Z,90.07
2018-11-23T22:29:07.721Z,90.38
2018-11-23T22:34:26.328Z,90.00
2018-11-23T22:39:44.877Z,89.86
2018-11-23T22:45:03.428Z,89.91
2018-11-23T22:50:23.761Z,90.05
2018-11-23T22:55:42.287Z,89.78
2018-11-23T23:01:02.993Z,89.93
2018-11-23T23:06:21.479Z,89.92
2018-11-23T23:11:39.975Z,89.98
2018-11-23T23:16:58.615Z,89.64
2018-11-23T23:22:17.104Z,89.92
2018-11-23T23:27:35.634Z,90.12
2018-11-23T23:32:54.133Z,90.71
2018-11-23T23:38:12.647Z,90.39
2018-11-23T23:43:31.169Z,90.20
2018-11-23T23:48:49.690Z,90.48
2018-11-23T23:54:08.192Z,90.48
2018-11-23T23:59:26.667Z,90.16
